createdAt,value
2018-03-23T09:17:59.070Z,1001.67
2018-03-23T09:18:24.540Z,1001.67
2018-03-23T09:18:50.016Z,1001.7
2018-03-23T09:19:15.534Z,1001.67
2018-03-23T09:19:41.036Z,1001.72
2018-03-23T09:20:06.440Z,1001.68
2018-03-23T09:20:32.030Z,1001.71
2018-03-23T09:20:57.437Z,1001.69
2018-03-23T09:21:22.923Z,1001.68
2018-03-23T09:21:48.460Z,1001.68
2018-03-23T09:22:14.024Z,1001.65
2018-03-23T09:22:39.490Z,1001.67
2018-03-23T09:23:05.100Z,1001.67
2018-03-23T09:23:30.627Z,1001.67
2018-03-23T09:23:56.149Z,1001.71
2018-03-23T09:24:21.647Z,1001.63
2018-03-23T09:24:47.108Z,1001.61
2018-03-23T09:25:12.611Z,1001.66
2018-03-23T09:25:38.057Z,1001.64
2018-03-23T09:26:03.513Z,1001.62
2018-03-23T09:26:29.055Z,1001.65
2018-03-23T09:26:54.536Z,1001.66
2018-03-23T09:27:20.095Z,1001.62
2018-03-23T09:27:45.588Z,1001.62
2018-03-23T09:28:11.191Z,1001.6
2018-03-23T09:28:36.677Z,1001.62
2018-03-23T09:29:02.109Z,1001.62
2018-03-23T09:29:27.689Z,1001.62
2018-03-23T09:29:53.175Z,1001.6
2018-03-23T09:30:18.684Z,1001.59
2018-03-23T09:30:44.233Z,1001.59
2018-03-23T09:31:09.730Z,1001.57
2018-03-23T09:31:35.122Z,1001.6
2018-03-23T09:32:00.687Z,1001.55
2018-03-23T09:32:26.197Z,1001.57
2018-03-23T09:32:51.679Z,1001.53
2018-03-23T09:33:17.131Z,1001.57
2018-03-23T09:33:42.672Z,1001.54
2018-03-23T09:34:08.074Z,1001.55
2018-03-23T09:34:33.577Z,1001.53
2018-03-23T09:34:59.014Z,1001.55
2018-03-23T09:35:24.472Z,1001.52
2018-03-23T09:35:50.000Z,1001.46
2018-03-23T09:36:15.427Z,1001.52
2018-03-23T09:36:40.945Z,1001.54
2018-03-23T09:37:06.405Z,1001.5
2018-03-23T09:37:32.101Z,1001.53
2018-03-23T09:37:57.541Z,1001.49
2018-03-23T09:38:23.018Z,1001.49
2018-03-23T09:38:48.529Z,1001.47
2018-03-23T09:39:13.988Z,1001.48
2018-03-23T09:39:39.511Z,1001.49
2018-03-23T09:40:05.013Z,1001.5
2018-03-23T09:40:30.410Z,1001.48
2018-03-23T09:40:55.899Z,1001.44
2018-03-23T09:41:21.364Z,1001.4
2018-03-23T09:41:46.868Z,1001.43
2018-03-23T09:42:12.350Z,1001.43
2018-03-23T09:42:37.788Z,1001.45
2018-03-23T09:43:03.406Z,1001.39
2018-03-23T09:43:28.841Z,1001.41
2018-03-23T09:43:54.350Z,1001.43
2018-03-23T09:44:19.837Z,1001.41
2018-03-23T09:44:45.310Z,1001.43
2018-03-23T09:45:10.821Z,1001.43
2018-03-23T09:45:36.316Z,1001.41
2018-03-23T09:46:01.799Z,1001.39
2018-03-23T09:46:27.326Z,1001.4
2018-03-23T09:46:52.823Z,1001.39
2018-03-23T09:47:18.274Z,1001.4
2018-03-23T09:47:43.715Z,1001.42
2018-03-23T09:48:09.254Z,1001.4
2018-03-23T09:48:34.768Z,1001.45
2018-03-23T09:49:00.224Z,1001.4
2018-03-23T09:49:25.747Z,1001.42
2018-03-23T09:49:51.205Z,1001.39
2018-03-23T09:50:16.710Z,1001.39
2018-03-23T09:50:42.132Z,1001.35
2018-03-23T09:51:07.687Z,1001.39
2018-03-23T09:51:33.088Z,1001.38
2018-03-23T09:51:58.632Z,1001.36
2018-03-23T09:52:24.115Z,1001.4
2018-03-23T09:52:49.649Z,1001.33
2018-03-23T09:53:15.146Z,1001.36
2018-03-23T09:53:40.511Z,1001.33
2018-03-23T09:54:06.089Z,1001.34
2018-03-23T09:54:31.561Z,1001.41
2018-03-23T09:54:57.049Z,1001.34
2018-03-23T09:55:22.633Z,1001.34
2018-03-23T09:55:48.027Z,1001.35
2018-03-23T09:56:13.557Z,1001.32
2018-03-23T09:56:39.054Z,1001.35
2018-03-23T09:57:04.582Z,1001.32
2018-03-23T09:57:30.082Z,1001.39
2018-03-23T09:57:55.599Z,1001.29
2018-03-23T09:58:21.055Z,1001.37
2018-03-23T09:58:46.541Z,1001.33
2018-03-23T09:59:11.975Z,1001.33
2018-03-23T09:59:37.485Z,1001.33
2018-03-23T10:00:02.930Z,1001.32
2018-03-23T10:00:28.535Z,1001.32
2018-03-23T10:00:54.033Z,1001.32
2018-03-23T10:01:19.457Z,1001.34
2018-03-23T10:01:44.911Z,1001.3
2018-03-23T10:02:10.405Z,1001.34
2018-03-23T10:02:35.862Z,1001.32
2018-03-23T10:03:34.379Z,1001.29
2018-03-23T10:03:59.876Z,1001.3
2018-03-23T10:04:25.331Z,1001.29
2018-03-23T10:04:50.888Z,1001.26
2018-03-23T10:05:16.381Z,1001.27
2018-03-23T10:05:41.875Z,1001.28
2018-03-23T10:06:07.386Z,1001.27
2018-03-23T10:06:32.845Z,1001.27
2018-03-23T10:06:58.359Z,1001.28
2018-03-23T10:07:23.889Z,1001.26
2018-03-23T10:07:49.380Z,1001.29
2018-03-23T10:08:14.892Z,1001.28
2018-03-23T10:08:40.388Z,1001.27
2018-03-23T10:09:06.018Z,1001.28
2018-03-23T10:09:31.428Z,1001.27
2018-03-23T10:09:56.989Z,1001.28
2018-03-23T10:10:22.424Z,1001.26
2018-03-23T10:11:36.214Z,1001.25
2018-03-23T10:12:01.721Z,1001.28
2018-03-23T10:12:27.174Z,1001.26
2018-03-23T10:12:52.633Z,1001.29
2018-03-23T10:13:18.173Z,1001.33
2018-03-23T10:13:43.607Z,1001.26
2018-03-23T10:14:09.070Z,1001.27
2018-03-23T10:14:34.626Z,1001.31
2018-03-23T10:15:00.066Z,1001.28
2018-03-23T10:15:25.513Z,1001.27
2018-03-23T10:15:50.947Z,1001.26
2018-03-23T10:16:16.402Z,1001.29
2018-03-23T10:16:41.892Z,1001.31
2018-03-23T10:17:07.384Z,1001.26
2018-03-23T10:17:32.876Z,1001.26
2018-03-23T10:17:58.347Z,1001.25
2018-03-23T10:18:23.926Z,1001.3
2018-03-23T10:18:49.383Z,1001.25
2018-03-23T10:19:14.837Z,1001.25
2018-03-23T10:19:40.383Z,1001.22
2018-03-23T10:20:05.848Z,1001.17
2018-03-23T10:20:31.335Z,1001.2
2018-03-23T10:20:56.844Z,1001.23
2018-03-23T10:21:22.320Z,1001.22
2018-03-23T10:21:47.792Z,1001.23
2018-03-23T10:22:13.321Z,1001.18
2018-03-23T10:22:38.773Z,1001.22
2018-03-23T10:23:04.246Z,1001.16
2018-03-23T10:23:29.717Z,1001.16
2018-03-23T10:23:55.244Z,1001.17
2018-03-23T10:24:20.699Z,1001.15
2018-03-23T10:24:46.221Z,1001.17
2018-03-23T10:25:11.668Z,1001.18
2018-03-23T10:25:37.228Z,1001.12
2018-03-23T10:26:02.765Z,1001.11
2018-03-23T10:26:28.251Z,1001.1
2018-03-23T10:26:53.729Z,1001.14
2018-03-23T10:27:19.283Z,1001.12
2018-03-23T10:27:44.825Z,1001.14
2018-03-23T10:28:10.320Z,1001.12
2018-03-23T10:28:35.993Z,1001.19
2018-03-23T10:29:01.355Z,1001.12
2018-03-23T10:29:26.962Z,1001.11
2018-03-23T10:29:52.407Z,1001.1
2018-03-23T10:30:17.943Z,1001.08
2018-03-23T10:30:43.427Z,1001.09
2018-03-23T10:31:08.960Z,1001.1
2018-03-23T10:31:34.431Z,1001.08
2018-03-23T10:31:59.917Z,1001.04
2018-03-23T10:32:25.417Z,1001.05
2018-03-23T10:32:50.934Z,1001.05
2018-03-23T10:33:16.391Z,1001.02
2018-03-23T10:33:41.923Z,1001.07
2018-03-23T10:34:07.462Z,1001.03
2018-03-23T10:34:32.916Z,1000.99
2018-03-23T10:34:58.445Z,1000.98
2018-03-23T10:35:23.963Z,1001
2018-03-23T10:35:49.463Z,1000.99
2018-03-23T10:36:14.976Z,1000.96
2018-03-23T10:36:40.496Z,1000.99
2018-03-23T10:37:06.010Z,1000.95
2018-03-23T10:37:31.569Z,1000.96
2018-03-23T10:37:57.001Z,1000.96
2018-03-23T10:38:22.500Z,1000.99
2018-03-23T10:38:48.066Z,1000.97
2018-03-23T10:39:13.559Z,1000.96
2018-03-23T10:39:39.077Z,1000.98
2018-03-23T10:40:04.570Z,1000.99
2018-03-23T10:40:30.080Z,1000.94
2018-03-23T10:40:55.603Z,1000.97
2018-03-23T10:41:21.128Z,1000.96
2018-03-23T10:41:46.615Z,1000.93
2018-03-23T10:42:12.145Z,1000.9
2018-03-23T10:42:37.674Z,1000.94
2018-03-23T10:43:03.135Z,1000.93
2018-03-23T10:43:28.637Z,1000.98
2018-03-23T10:43:54.148Z,1000.93
2018-03-23T10:44:19.663Z,1000.9
2018-03-23T10:44:45.200Z,1000.92
2018-03-23T10:45:10.650Z,1000.85
2018-03-23T10:45:36.101Z,1000.84
2018-03-23T10:46:01.697Z,1000.83
2018-03-23T10:46:27.151Z,1000.85
2018-03-23T10:46:52.622Z,1000.89
2018-03-23T10:47:18.120Z,1000.87
2018-03-23T10:47:43.675Z,1000.86
2018-03-23T10:48:09.139Z,1000.84
2018-03-23T10:48:34.645Z,1000.85
2018-03-23T10:49:00.096Z,1000.8
2018-03-23T10:49:25.664Z,1000.81
2018-03-23T10:49:51.135Z,1000.84
2018-03-23T10:50:16.669Z,1000.85
2018-03-23T10:50:42.209Z,1000.8
2018-03-23T10:51:07.759Z,1000.82
2018-03-23T10:52:16.425Z,1000.82
2018-03-23T10:52:41.985Z,1000.85
2018-03-23T10:53:07.461Z,1000.82
2018-03-23T10:53:32.911Z,1000.83
2018-03-23T10:53:58.508Z,1000.88
2018-03-23T10:54:23.932Z,1000.85
2018-03-23T10:54:49.418Z,1000.82
2018-03-23T10:55:14.962Z,1000.85
2018-03-23T10:55:40.452Z,1000.86
2018-03-23T10:56:05.948Z,1000.87
2018-03-23T10:56:31.497Z,1000.82
2018-03-23T10:56:57.022Z,1000.85
2018-03-23T10:57:22.557Z,1000.84
2018-03-23T10:57:48.046Z,1000.81
2018-03-23T10:58:13.553Z,1000.87
2018-03-23T10:58:39.056Z,1000.8
2018-03-23T10:59:04.565Z,1000.84
2018-03-23T10:59:30.039Z,1000.81
2018-03-23T10:59:55.604Z,1000.81
2018-03-23T11:00:21.079Z,1000.76
2018-03-23T11:00:46.602Z,1000.79
2018-03-23T11:01:12.121Z,1000.78
2018-03-23T11:01:37.585Z,1000.74
2018-03-23T11:02:03.138Z,1000.73
2018-03-23T11:02:28.648Z,1000.72
2018-03-23T11:02:54.167Z,1000.74
2018-03-23T11:03:19.676Z,1000.71
2018-03-23T11:03:45.184Z,1000.7
2018-03-23T11:04:10.675Z,1000.71
2018-03-23T11:04:36.225Z,1000.69
2018-03-23T11:05:01.760Z,1000.71
2018-03-23T11:05:27.273Z,1000.71
2018-03-23T11:05:52.769Z,1000.69
2018-03-23T11:06:18.269Z,1000.72
2018-03-23T11:06:43.726Z,1000.73
2018-03-23T11:07:42.347Z,1000.73
2018-03-23T11:08:07.860Z,1000.74
2018-03-23T11:08:33.315Z,1000.68
2018-03-23T11:08:58.918Z,1000.68
2018-03-23T11:09:24.312Z,1000.65
2018-03-23T11:09:49.878Z,1000.68
2018-03-23T11:10:15.472Z,1000.68
2018-03-23T11:10:40.931Z,1000.7
2018-03-23T11:11:06.437Z,1000.68
2018-03-23T11:11:31.916Z,1000.66
2018-03-23T11:11:57.470Z,1000.65
2018-03-23T11:12:23.048Z,1000.66
2018-03-23T11:12:48.562Z,1000.65
2018-03-23T11:13:14.018Z,1000.65
2018-03-23T11:13:39.489Z,1000.66
2018-03-23T11:14:04.994Z,1000.63
2018-03-23T11:14:30.537Z,1000.62
2018-03-23T11:14:56.043Z,1000.64
2018-03-23T11:15:21.577Z,1000.59
2018-03-23T11:15:46.968Z,1000.63
2018-03-23T11:16:12.433Z,1000.66
2018-03-23T11:16:38.049Z,1000.63
2018-03-23T11:17:03.456Z,1000.63
2018-03-23T11:17:28.962Z,1000.63
2018-03-23T11:17:54.503Z,1000.62
2018-03-23T11:18:19.943Z,1000.59
2018-03-23T11:18:45.429Z,1000.56
2018-03-23T11:19:10.901Z,1000.51
2018-03-23T11:19:36.367Z,1000.55
2018-03-23T11:20:01.880Z,1000.53
2018-03-23T11:20:27.397Z,1000.54
2018-03-23T11:20:52.907Z,1000.55
2018-03-23T11:21:18.434Z,1000.57
2018-03-23T11:21:43.978Z,1000.55
2018-03-23T11:22:09.540Z,1000.53
2018-03-23T11:22:35.057Z,1000.53
2018-03-23T11:23:00.664Z,1000.53
2018-03-23T11:23:26.157Z,1000.51
2018-03-23T11:23:51.619Z,1000.53
2018-03-23T11:24:17.394Z,1000.54
2018-03-23T11:24:42.812Z,1000.48
2018-03-23T11:25:08.326Z,1000.45
2018-03-23T11:25:33.810Z,1000.45
2018-03-23T11:25:59.293Z,1000.43
2018-03-23T11:26:24.798Z,1000.42
2018-03-23T11:26:50.318Z,1000.4
2018-03-23T11:27:15.806Z,1000.41
2018-03-23T11:27:41.289Z,1000.38
2018-03-23T11:28:06.792Z,1000.43
2018-03-23T11:28:32.315Z,1000.38
2018-03-23T11:28:57.768Z,1000.41
2018-03-23T11:29:23.282Z,1000.4
2018-03-23T11:29:48.780Z,1000.37
2018-03-23T11:30:14.291Z,1000.39
2018-03-23T11:30:39.767Z,1000.37
2018-03-23T11:31:05.358Z,1000.38
2018-03-23T11:31:30.814Z,1000.37
2018-03-23T11:31:56.281Z,1000.36
2018-03-23T11:32:21.813Z,1000.38
2018-03-23T11:32:47.312Z,1000.39
2018-03-23T11:33:12.850Z,1000.37
2018-03-23T11:33:38.315Z,1000.38
2018-03-23T11:34:03.846Z,1000.39
2018-03-23T11:34:29.338Z,1000.43
2018-03-23T11:34:54.835Z,1000.38
2018-03-23T11:35:20.326Z,1000.36
2018-03-23T11:35:45.867Z,1000.33
2018-03-23T11:36:11.371Z,1000.36
2018-03-23T11:36:36.836Z,1000.32
2018-03-23T11:37:02.324Z,1000.35
2018-03-23T11:37:27.834Z,1000.31
2018-03-23T11:37:53.302Z,1000.33
2018-03-23T11:38:18.779Z,1000.35
2018-03-23T11:38:44.315Z,1000.33
2018-03-23T11:39:09.774Z,1000.33
2018-03-23T11:39:35.238Z,1000.29
2018-03-23T11:40:00.702Z,1000.33
2018-03-23T11:40:26.213Z,1000.31
2018-03-23T11:40:51.708Z,1000.3
2018-03-23T11:41:17.193Z,1000.29
2018-03-23T11:41:42.706Z,1000.33
2018-03-23T11:42:08.214Z,1000.31
2018-03-23T11:42:33.725Z,1000.31
2018-03-23T11:42:59.243Z,1000.31
2018-03-23T11:43:24.769Z,1000.33
2018-03-23T11:43:50.279Z,1000.28
2018-03-23T11:44:15.743Z,1000.3
2018-03-23T11:44:41.236Z,1000.26
2018-03-23T11:45:06.710Z,1000.33
2018-03-23T11:45:32.258Z,1000.29
2018-03-23T11:45:57.730Z,1000.28
2018-03-23T11:46:23.215Z,1000.27
2018-03-23T11:46:48.783Z,1000.23
2018-03-23T11:47:14.267Z,1000.26
2018-03-23T11:48:33.197Z,1000.24
2018-03-23T11:48:58.675Z,1000.23
2018-03-23T11:49:24.168Z,1000.23
2018-03-23T11:49:49.645Z,1000.23
2018-03-23T11:50:48.286Z,1000.21
2018-03-23T11:51:14.083Z,1000.2
2018-03-23T11:52:27.970Z,1000.19
2018-03-23T11:52:53.488Z,1000.16
2018-03-23T11:53:19.041Z,1000.14
2018-03-23T11:53:44.464Z,1000.15
2018-03-23T11:54:09.970Z,1000.1
2018-03-23T11:54:35.453Z,1000.13
2018-03-23T11:55:01.007Z,1000.11
2018-03-23T11:55:27.248Z,1000.11
2018-03-23T11:55:52.835Z,1000.07
2018-03-23T11:56:18.525Z,1000.08
2018-03-23T11:56:44.028Z,1000.12
2018-03-23T11:57:52.822Z,1000.09
2018-03-23T11:58:18.289Z,1000.07
2018-03-23T11:58:43.824Z,1000.09
2018-03-23T11:59:09.448Z,1000.11
2018-03-23T11:59:35.096Z,1000.08
2018-03-23T12:00:00.681Z,1000.13
2018-03-23T12:00:26.329Z,1000.06
2018-03-23T12:00:51.811Z,1000.09
2018-03-23T12:01:17.389Z,1000.08
2018-03-23T12:01:42.898Z,1000.1
2018-03-23T12:02:08.394Z,1000.07
2018-03-23T12:02:33.888Z,1000.06
2018-03-23T12:02:59.385Z,1000.04
2018-03-23T12:03:24.859Z,1000.03
2018-03-23T12:04:38.864Z,1000.03
2018-03-23T12:05:04.346Z,1000.06
2018-03-23T12:05:29.828Z,1000.13
2018-03-23T12:05:55.335Z,1000.1
2018-03-23T12:06:20.997Z,1000.05
2018-03-23T12:06:46.356Z,1000.03
2018-03-23T12:07:11.861Z,1000.05
2018-03-23T12:07:37.393Z,1000.03
2018-03-23T12:08:02.882Z,1000.03
2018-03-23T12:08:28.379Z,1000
2018-03-23T12:08:53.875Z,1000
2018-03-23T12:09:19.341Z,1000.01
2018-03-23T12:09:44.846Z,999.97
2018-03-23T12:10:10.321Z,999.96
2018-03-23T12:10:35.800Z,999.99
2018-03-23T12:11:01.293Z,999.92
2018-03-23T12:11:26.772Z,999.91
2018-03-23T12:11:52.265Z,999.94
2018-03-23T12:12:17.767Z,999.89
2018-03-23T12:12:43.239Z,999.93
2018-03-23T12:13:08.742Z,999.87
2018-03-23T12:13:34.236Z,999.89
2018-03-23T12:13:59.712Z,999.85
2018-03-23T12:14:25.233Z,999.86
2018-03-23T12:14:50.672Z,999.87
2018-03-23T12:15:16.183Z,999.86
2018-03-23T12:15:41.710Z,999.89
2018-03-23T12:16:07.208Z,999.86
2018-03-23T12:16:32.633Z,999.86
2018-03-23T12:16:58.149Z,999.83
2018-03-23T12:17:23.635Z,999.85
2018-03-23T12:17:49.131Z,999.82
2018-03-23T12:18:14.608Z,999.86
2018-03-23T12:18:40.162Z,999.87
2018-03-23T12:19:05.698Z,999.81
2018-03-23T12:19:31.256Z,999.85
2018-03-23T12:19:56.762Z,999.82
2018-03-23T12:20:22.254Z,999.84
2018-03-23T12:20:47.739Z,999.82
2018-03-23T12:21:13.250Z,999.82
2018-03-23T12:21:38.758Z,999.85
2018-03-23T12:22:04.273Z,999.8
2018-03-23T12:22:29.783Z,999.83
2018-03-23T12:22:55.242Z,999.84
2018-03-23T12:23:20.750Z,999.83
2018-03-23T12:23:46.244Z,999.81
2018-03-23T12:24:11.780Z,999.75
2018-03-23T12:24:37.301Z,999.74
2018-03-23T12:25:02.785Z,999.72
2018-03-23T12:25:28.273Z,999.74
2018-03-23T12:25:53.819Z,999.69
2018-03-23T12:26:19.285Z,999.69
2018-03-23T12:26:44.775Z,999.73
2018-03-23T12:27:10.318Z,999.67
2018-03-23T12:27:35.814Z,999.66
2018-03-23T12:28:01.326Z,999.71
2018-03-23T12:28:26.810Z,999.67
2018-03-23T12:28:52.328Z,999.66
2018-03-23T12:29:17.804Z,999.65
2018-03-23T12:29:43.302Z,999.66
2018-03-23T12:30:08.810Z,999.63
2018-03-23T12:30:34.302Z,999.68
2018-03-23T12:30:59.815Z,999.65
2018-03-23T12:31:25.300Z,999.65
2018-03-23T12:31:50.838Z,999.67
2018-03-23T12:32:16.378Z,999.65
2018-03-23T12:32:41.907Z,999.65
2018-03-23T12:33:07.404Z,999.67
2018-03-23T12:33:32.898Z,999.64
2018-03-23T12:33:58.463Z,999.63
2018-03-23T12:34:23.946Z,999.61
2018-03-23T12:34:49.472Z,999.64
2018-03-23T12:35:14.970Z,999.6
2018-03-23T12:35:40.460Z,999.65
2018-03-23T12:36:05.945Z,999.62
2018-03-23T12:36:31.429Z,999.63
2018-03-23T12:36:56.938Z,999.6
2018-03-23T12:37:22.446Z,999.62
2018-03-23T12:37:47.985Z,999.65
2018-03-23T12:38:13.467Z,999.63
2018-03-23T12:38:38.947Z,999.63
2018-03-23T12:39:04.420Z,999.62
2018-03-23T12:39:29.938Z,999.62
2018-03-23T12:39:55.442Z,999.65
2018-03-23T12:40:20.914Z,999.65
2018-03-23T12:40:46.476Z,999.61
2018-03-23T12:41:11.968Z,999.63
2018-03-23T12:41:37.571Z,999.62
2018-03-23T12:42:03.091Z,999.64
2018-03-23T12:42:28.550Z,999.66
2018-03-23T12:42:54.042Z,999.65
2018-03-23T12:43:19.528Z,999.6
2018-03-23T12:43:45.058Z,999.63
2018-03-23T12:44:10.562Z,999.64
2018-03-23T12:44:36.030Z,999.62
2018-03-23T12:45:01.555Z,999.61
2018-03-23T12:45:27.043Z,999.55
2018-03-23T12:45:52.530Z,999.58
2018-03-23T12:47:06.398Z,999.57
2018-03-23T12:47:32.014Z,999.54
2018-03-23T12:47:57.622Z,999.58
2018-03-23T12:48:23.119Z,999.56
2018-03-23T12:48:48.684Z,999.56
2018-03-23T12:49:14.153Z,999.54
2018-03-23T12:49:39.643Z,999.53
2018-03-23T12:50:05.165Z,999.48
2018-03-23T12:50:30.889Z,999.5
2018-03-23T12:50:56.513Z,999.53
2018-03-23T12:51:22.011Z,999.49
2018-03-23T12:51:47.534Z,999.45
2018-03-23T12:52:13.147Z,999.46
2018-03-23T12:52:38.581Z,999.48
2018-03-23T12:53:04.156Z,999.45
2018-03-23T12:53:29.835Z,999.53
2018-03-23T12:53:55.427Z,999.44
2018-03-23T12:54:20.891Z,999.44
2018-03-23T12:54:46.421Z,999.43
2018-03-23T12:55:12.878Z,999.45
2018-03-23T12:55:38.403Z,999.45
2018-03-23T12:56:03.951Z,999.47
2018-03-23T12:56:29.529Z,999.47
2018-03-23T12:56:54.956Z,999.43
2018-03-23T12:57:20.447Z,999.42
2018-03-23T12:57:45.976Z,999.44
2018-03-23T12:58:11.538Z,999.44
2018-03-23T12:58:36.974Z,999.47
2018-03-23T12:59:02.499Z,999.44
2018-03-23T12:59:28.021Z,999.41
2018-03-23T12:59:53.553Z,999.44
2018-03-23T13:00:19.047Z,999.43
2018-03-23T13:00:44.525Z,999.44
2018-03-23T13:01:10.034Z,999.45
2018-03-23T13:01:35.544Z,999.39
2018-03-23T13:02:01.017Z,999.4
2018-03-23T13:02:26.495Z,999.42
2018-03-23T13:02:51.955Z,999.4
2018-03-23T13:03:17.524Z,999.38
2018-03-23T13:03:43.089Z,999.38
2018-03-23T13:04:08.614Z,999.39
2018-03-23T13:04:34.097Z,999.36
2018-03-23T13:04:59.603Z,999.34
2018-03-23T13:05:25.056Z,999.35
2018-03-23T13:05:50.584Z,999.35
2018-03-23T13:06:16.061Z,999.33
2018-03-23T13:06:41.576Z,999.34
2018-03-23T13:07:07.049Z,999.37
2018-03-23T13:07:32.531Z,999.36
2018-03-23T13:07:58.083Z,999.31
2018-03-23T13:08:23.583Z,999.32
2018-03-23T13:08:49.099Z,999.33
2018-03-23T13:09:14.583Z,999.31
2018-03-23T13:09:40.093Z,999.29
2018-03-23T13:10:05.553Z,999.33
2018-03-23T13:10:31.038Z,999.32
2018-03-23T13:10:56.514Z,999.33
2018-03-23T13:11:22.002Z,999.32
2018-03-23T13:11:47.480Z,999.31
2018-03-23T13:12:12.989Z,999.3
2018-03-23T13:12:38.473Z,999.29
2018-03-23T13:13:03.974Z,999.25
2018-03-23T13:13:29.457Z,999.27
2018-03-23T13:13:54.981Z,999.26
2018-03-23T13:14:20.527Z,999.27
2018-03-23T13:14:46.009Z,999.26
2018-03-23T13:15:11.465Z,999.28
2018-03-23T13:15:37.017Z,999.25
2018-03-23T13:16:02.494Z,999.25
2018-03-23T13:16:28.001Z,999.26
2018-03-23T13:16:53.493Z,999.27
2018-03-23T13:17:19.021Z,999.26
2018-03-23T13:17:44.505Z,999.24
2018-03-23T13:18:10.003Z,999.29
2018-03-23T13:18:35.530Z,999.3
2018-03-23T13:19:01.052Z,999.24
2018-03-23T13:19:26.522Z,999.24
2018-03-23T13:19:51.981Z,999.26
2018-03-23T13:20:17.447Z,999.3
2018-03-23T13:20:42.952Z,999.3
2018-03-23T13:21:08.435Z,999.24
2018-03-23T13:21:33.903Z,999.26
2018-03-23T13:21:59.426Z,999.34
2018-03-23T13:22:24.904Z,999.31
2018-03-23T13:22:50.529Z,999.3
2018-03-23T13:23:16.001Z,999.28
2018-03-23T13:23:41.464Z,999.32
2018-03-23T13:24:06.999Z,999.29
2018-03-23T13:24:32.520Z,999.34
2018-03-23T13:24:57.975Z,999.31
2018-03-23T13:25:23.590Z,999.33
2018-03-23T13:25:49.091Z,999.31
2018-03-23T13:26:14.596Z,999.3
2018-03-23T13:26:40.093Z,999.29
2018-03-23T13:27:05.571Z,999.31
2018-03-23T13:27:31.056Z,999.25
2018-03-23T13:27:56.596Z,999.26
2018-03-23T13:28:22.065Z,999.25
2018-03-23T13:28:47.578Z,999.22
2018-03-23T13:29:13.055Z,999.26
2018-03-23T13:29:38.537Z,999.22
2018-03-23T13:30:04.013Z,999.23
2018-03-23T13:30:29.565Z,999.23
2018-03-23T13:30:55.149Z,999.26
2018-03-23T13:31:20.631Z,999.28
2018-03-23T13:31:46.132Z,999.22
2018-03-23T13:32:11.596Z,999.23
2018-03-23T13:32:37.123Z,999.23
2018-03-23T13:33:02.613Z,999.2
2018-03-23T13:33:28.101Z,999.24
2018-03-23T13:34:31.836Z,999.14
2018-03-23T13:34:57.347Z,999.19
2018-03-23T13:35:22.862Z,999.1
2018-03-23T13:35:48.317Z,999.17
2018-03-23T13:36:13.820Z,999.11
2018-03-23T13:36:39.342Z,999.13
2018-03-23T13:37:04.815Z,999.1
2018-03-23T13:37:30.357Z,999.16
2018-03-23T13:37:55.833Z,999.08
2018-03-23T13:38:21.343Z,999.11
2018-03-23T13:38:46.841Z,999.09
2018-03-23T13:39:12.347Z,999.11
2018-03-23T13:39:37.797Z,999.11
2018-03-23T13:40:03.264Z,999.07
2018-03-23T13:40:28.744Z,999.11
2018-03-23T13:40:54.223Z,999.08
2018-03-23T13:41:19.711Z,999.08
2018-03-23T13:41:45.203Z,999.05
2018-03-23T13:42:10.681Z,999.09
2018-03-23T13:42:36.134Z,999.08
2018-03-23T13:43:01.632Z,999.04
2018-03-23T13:44:20.599Z,999.03
2018-03-23T13:44:46.103Z,999.02
2018-03-23T13:45:11.568Z,999.01
2018-03-23T13:45:37.038Z,999.03
2018-03-23T13:46:02.482Z,999.06
2018-03-23T13:46:27.952Z,999.06
2018-03-23T13:46:53.400Z,999.05
2018-03-23T13:47:18.902Z,999.07
2018-03-23T13:47:44.437Z,999.05
2018-03-23T13:48:09.901Z,999.06
2018-03-23T13:48:35.381Z,999.04
2018-03-23T13:49:00.866Z,999.05
2018-03-23T13:49:26.338Z,999.06
2018-03-23T13:49:51.835Z,999.07
2018-03-23T13:50:17.453Z,999.08
2018-03-23T13:50:42.842Z,999.03
2018-03-23T13:51:08.254Z,999.04
2018-03-23T13:51:33.696Z,999.05
2018-03-23T13:51:59.198Z,999.04
2018-03-23T13:52:24.693Z,999.03
2018-03-23T13:52:50.182Z,999.07
2018-03-23T13:53:15.628Z,999.06
2018-03-23T13:53:41.132Z,999.03
2018-03-23T13:54:06.690Z,998.97
2018-03-23T13:54:32.177Z,999
2018-03-23T13:54:57.613Z,999.01
2018-03-23T13:55:23.154Z,998.97
2018-03-23T13:55:48.607Z,998.98
2018-03-23T13:56:14.077Z,998.97
2018-03-23T13:56:39.569Z,998.96
2018-03-23T13:57:05.071Z,998.94
2018-03-23T13:57:30.547Z,998.91
2018-03-23T13:57:56.049Z,998.97
2018-03-23T13:58:21.532Z,998.94
2018-03-23T13:58:47.107Z,998.92
2018-03-23T13:59:12.501Z,998.93
2018-03-23T13:59:38.026Z,998.97
2018-03-23T14:00:03.539Z,998.95
2018-03-23T14:00:29.054Z,998.92
2018-03-23T14:00:54.548Z,998.97
2018-03-23T14:01:19.951Z,998.94
2018-03-23T14:01:45.478Z,998.93
2018-03-23T14:02:10.982Z,998.95
2018-03-23T14:02:36.496Z,998.93
2018-03-23T14:03:01.961Z,998.94
2018-03-23T14:03:27.449Z,999
2018-03-23T14:03:52.935Z,998.94
2018-03-23T14:04:18.401Z,998.95
2018-03-23T14:04:43.944Z,998.96
2018-03-23T14:05:09.396Z,998.94
2018-03-23T14:05:34.896Z,998.9
2018-03-23T14:06:00.333Z,998.92
2018-03-23T14:06:25.808Z,998.94
2018-03-23T14:06:51.300Z,998.95
2018-03-23T14:07:16.878Z,998.91
2018-03-23T14:07:42.246Z,998.86
2018-03-23T14:08:07.734Z,998.92
2018-03-23T14:08:33.205Z,998.88
2018-03-23T14:08:58.677Z,998.91
2018-03-23T14:09:24.175Z,998.88
2018-03-23T14:09:49.691Z,998.86
2018-03-23T14:10:15.215Z,998.83
2018-03-23T14:10:40.722Z,998.83
2018-03-23T14:11:06.208Z,998.86
2018-03-23T14:11:31.744Z,998.82
2018-03-23T14:11:57.267Z,998.88
2018-03-23T14:12:22.767Z,998.83
2018-03-23T14:13:21.302Z,998.8
2018-03-23T14:13:46.775Z,998.83
2018-03-23T14:14:12.285Z,998.8
2018-03-23T14:14:37.763Z,998.86
2018-03-23T14:15:03.242Z,998.77
2018-03-23T14:15:28.738Z,998.84
2018-03-23T14:15:54.184Z,998.82
2018-03-23T14:16:19.721Z,998.79
2018-03-23T14:16:45.207Z,998.83
2018-03-23T14:17:10.667Z,998.82
2018-03-23T14:17:36.153Z,998.8
2018-03-23T14:18:01.699Z,998.82
2018-03-23T14:18:27.243Z,998.83
2018-03-23T14:18:52.726Z,998.82
2018-03-23T14:19:18.216Z,998.85
2018-03-23T14:19:43.739Z,998.84
2018-03-23T14:20:09.245Z,998.81
2018-03-23T14:20:34.735Z,998.82
2018-03-23T14:21:00.202Z,998.84
2018-03-23T14:21:25.935Z,998.8
2018-03-23T14:21:51.433Z,998.84
2018-03-23T14:22:16.985Z,998.85
2018-03-23T14:22:42.423Z,998.83
2018-03-23T14:23:07.845Z,998.82
2018-03-23T14:23:33.328Z,998.82
2018-03-23T14:23:58.804Z,998.79
2018-03-23T14:24:24.281Z,998.82
2018-03-23T14:24:49.776Z,998.82
2018-03-23T14:25:15.251Z,998.8
2018-03-23T14:25:40.823Z,998.79
2018-03-23T14:26:06.290Z,998.82
2018-03-23T14:26:31.787Z,998.83
2018-03-23T14:26:57.311Z,998.77
2018-03-23T14:27:22.781Z,998.8
2018-03-23T14:27:48.516Z,998.77
2018-03-23T14:28:13.966Z,998.8
2018-03-23T14:28:39.584Z,998.78
2018-03-23T14:29:05.044Z,998.81
2018-03-23T14:29:30.615Z,998.81
2018-03-23T14:30:49.463Z,998.76
2018-03-23T14:31:15.027Z,998.79
2018-03-23T14:31:40.576Z,998.79
2018-03-23T14:32:06.051Z,998.76
2018-03-23T14:32:31.554Z,998.78
2018-03-23T14:32:57.025Z,998.8
2018-03-23T14:33:22.535Z,998.77
2018-03-23T14:33:47.953Z,998.76
2018-03-23T14:34:13.434Z,998.77
2018-03-23T14:34:38.983Z,998.76
2018-03-23T14:35:47.714Z,998.75
2018-03-23T14:36:13.187Z,998.72
2018-03-23T14:36:38.687Z,998.72
2018-03-23T14:37:04.150Z,998.72
2018-03-23T14:37:29.542Z,998.69
2018-03-23T14:37:55.038Z,998.73
2018-03-23T14:38:20.510Z,998.71
2018-03-23T14:38:45.971Z,998.72
2018-03-23T14:39:11.523Z,998.72
2018-03-23T14:39:37.038Z,998.75
2018-03-23T14:40:02.514Z,998.75
2018-03-23T14:40:28.058Z,998.71
2018-03-23T14:40:53.550Z,998.73
2018-03-23T14:41:19.068Z,998.71
2018-03-23T14:41:44.486Z,998.75
2018-03-23T14:42:09.975Z,998.76
2018-03-23T14:42:35.576Z,998.73